createdAt,value
2022-10-31T00:04:07.219Z,5.70
2022-10-31T00:09:10.571Z,4.65
2022-10-31T00:14:11.926Z,4.85
2022-10-31T00:19:13.357Z,5.00
2022-10-31T00:24:14.874Z,5.65
2022-10-31T00:29:16.250Z,5.00
2022-10-31T00:34:17.609Z,5.07
2022-10-31T00:39:18.948Z,4.70
2022-10-31T00:44:20.356Z,4.68
2022-10-31T00:49:21.757Z,5.07
2022-10-31T00:54:23.122Z,4.93
2022-10-31T00:59:24.507Z,3.58
2022-10-31T01:04:25.870Z,4.18
2022-10-31T01:09:27.290Z,4.25
2022-10-31T01:14:28.756Z,3.83
2022-10-31T01:19:30.157Z,3.85
2022-10-31T01:24:31.617Z,3.90
2022-10-31T01:29:32.953Z,3.80
2022-10-31T01:34:34.357Z,6.32
2022-10-31T01:39:35.847Z,3.40
2022-10-31T01:44:37.151Z,3.92
2022-10-31T01:49:49.817Z,4.05
2022-10-31T01:55:16.563Z,3.90
2022-10-31T02:00:19.958Z,4.90
2022-10-31T02:05:25.160Z,5.30
2022-10-31T02:10:28.249Z,4.47
2022-10-31T02:15:30.738Z,4.93
2022-10-31T02:21:17.094Z,9.68
2022-10-31T02:26:35.275Z,8.75
2022-10-31T02:31:51.878Z,7.30
2022-10-31T02:36:59.842Z,7.05
2022-10-31T02:42:26.154Z,7.95
2022-10-31T02:47:30.128Z,7.45
2022-10-31T02:52:33.228Z,7.70
2022-10-31T02:57:37.390Z,7.85
2022-10-31T03:02:42.146Z,6.82
2022-10-31T03:07:57.732Z,6.57
2022-10-31T03:13:25.969Z,6.85
2022-10-31T03:18:57.259Z,5.80
2022-10-31T03:24:00.687Z,5.18
2022-10-31T03:29:05.892Z,5.43
2022-10-31T03:34:09.302Z,6.95
2022-10-31T03:39:15.298Z,6.10
2022-10-31T03:44:20.004Z,5.22
2022-10-31T03:49:21.801Z,5.95
2022-10-31T03:54:46.176Z,4.53
2022-10-31T04:00:20.670Z,4.97
2022-10-31T04:05:22.672Z,5.55
2022-10-31T04:10:31.890Z,6.03
2022-10-31T04:15:36.389Z,6.80
2022-10-31T04:20:39.845Z,6.82
2022-10-31T04:25:41.186Z,6.22
2022-10-31T04:30:42.542Z,7.63
2022-10-31T04:35:44.001Z,6.22
2022-10-31T04:40:46.196Z,6.47
2022-10-31T04:45:47.664Z,5.97
2022-10-31T04:50:49.021Z,5.80
2022-10-31T04:55:50.372Z,5.35
2022-10-31T05:00:55.605Z,5.10
2022-10-31T05:05:57.062Z,6.65
2022-10-31T05:11:04.429Z,5.43
2022-10-31T05:16:06.494Z,8.02
2022-10-31T05:21:07.883Z,7.90
2022-10-31T05:26:09.242Z,7.40
2022-10-31T05:31:10.735Z,7.22
2022-10-31T05:36:12.110Z,7.90
2022-10-31T05:41:13.487Z,6.97
2022-10-31T05:46:14.873Z,6.95
2022-10-31T05:51:16.208Z,7.30
2022-10-31T05:56:17.535Z,7.40
2022-10-31T06:01:18.924Z,7.35
2022-10-31T06:06:20.328Z,5.93
2022-10-31T06:11:21.717Z,6.43
2022-10-31T06:16:23.090Z,6.38
2022-10-31T06:21:25.243Z,6.93
2022-10-31T06:26:26.633Z,7.88
2022-10-31T06:31:28.064Z,8.88
2022-10-31T06:36:29.401Z,6.90
2022-10-31T06:41:30.770Z,6.93
2022-10-31T06:46:32.109Z,7.43
2022-10-31T06:51:33.481Z,6.57
2022-10-31T06:56:35.052Z,6.05
2022-10-31T07:01:36.516Z,5.50
2022-10-31T07:06:38.379Z,5.63
2022-10-31T07:11:39.732Z,5.70
2022-10-31T07:16:41.092Z,5.30
2022-10-31T07:21:42.494Z,5.75
2022-10-31T07:26:44.524Z,4.88
2022-10-31T07:31:47.104Z,5.38
2022-10-31T07:36:48.442Z,5.15
2022-10-31T07:41:49.801Z,6.18
2022-10-31T07:46:51.203Z,5.75
2022-10-31T07:51:52.560Z,7.35
2022-10-31T07:56:53.904Z,5.47
2022-10-31T08:01:55.235Z,5.50
2022-10-31T08:06:56.610Z,5.68
2022-10-31T08:11:58.249Z,5.60
2022-10-31T08:16:59.625Z,5.50
2022-10-31T08:22:01.186Z,5.90
2022-10-31T08:27:02.598Z,6.40
2022-10-31T08:32:04.104Z,5.45
2022-10-31T08:37:05.615Z,6.10
2022-10-31T08:42:07.003Z,5.90
2022-10-31T08:47:08.361Z,6.03
2022-10-31T08:52:14.317Z,6.32
2022-10-31T08:57:16.016Z,6.82
2022-10-31T09:02:17.416Z,6.28
2022-10-31T09:07:20.995Z,6.15
2022-10-31T09:12:24.807Z,6.60
2022-10-31T09:17:27.666Z,6.03
2022-10-31T09:22:29.049Z,7.25
2022-10-31T09:27:30.394Z,6.80
2022-10-31T09:32:32.055Z,6.90
2022-10-31T09:37:33.414Z,6.55
2022-10-31T09:43:04.469Z,5.95
2022-10-31T09:48:28.086Z,6.55
2022-10-31T09:53:58.374Z,7.32
2022-10-31T09:59:01.632Z,8.05
2022-10-31T10:04:33.300Z,10.35
2022-10-31T10:09:34.699Z,9.80
2022-10-31T10:14:56.426Z,9.02
2022-10-31T10:20:21.011Z,9.30
2022-10-31T10:25:34.303Z,9.13
2022-10-31T10:30:45.683Z,8.50
2022-10-31T10:36:00.266Z,8.88
2022-10-31T10:41:05.907Z,8.90
2022-10-31T10:46:45.340Z,8.90
2022-10-31T10:52:49.277Z,9.65
2022-10-31T10:58:03.524Z,9.40
2022-10-31T11:03:06.368Z,8.75
2022-10-31T11:08:08.818Z,9.07
2022-10-31T11:13:13.275Z,9.68
2022-10-31T11:23:33.732Z,9.77
2022-10-31T11:28:36.812Z,10.57
2022-10-31T11:33:48.909Z,9.15
2022-10-31T11:38:51.531Z,8.82
2022-10-31T11:44:18.737Z,8.75
2022-10-31T11:49:36.087Z,8.43
2022-10-31T11:54:46.242Z,7.63
2022-10-31T11:59:53.909Z,7.28
2022-10-31T12:05:17.524Z,7.88
2022-10-31T12:10:22.604Z,6.30
2022-10-31T12:15:34.304Z,6.13
2022-10-31T12:21:12.868Z,6.03
2022-10-31T12:26:35.494Z,7.30
2022-10-31T12:31:53.309Z,5.40
2022-10-31T12:37:27.070Z,5.38
2022-10-31T12:43:02.975Z,5.78
2022-10-31T12:48:33.822Z,4.85
2022-10-31T12:54:01.675Z,6.45
2022-10-31T12:59:18.020Z,4.70
2022-10-31T13:04:29.252Z,5.17
2022-10-31T13:09:36.371Z,4.85
2022-10-31T13:14:42.868Z,3.83
2022-10-31T13:19:46.249Z,3.83
2022-10-31T13:25:00.510Z,3.38
2022-10-31T13:30:06.713Z,3.35
2022-10-31T13:35:18.007Z,3.80
2022-10-31T13:40:58.916Z,4.40
2022-10-31T13:46:00.359Z,3.33
2022-10-31T13:51:07.196Z,3.22
2022-10-31T13:56:08.493Z,3.38
2022-10-31T14:01:15.832Z,4.07
2022-10-31T14:06:17.592Z,3.45
2022-10-31T14:11:32.830Z,4.38
2022-10-31T14:16:41.224Z,4.85
2022-10-31T14:21:46.232Z,4.07
2022-10-31T14:26:58.820Z,3.80
2022-10-31T14:32:13.517Z,4.05
2022-10-31T14:37:25.721Z,3.60
2022-10-31T14:42:37.047Z,3.92
2022-10-31T14:47:58.407Z,4.65
2022-10-31T14:53:04.259Z,3.65
2022-10-31T14:58:08.974Z,4.13
2022-10-31T15:03:25.074Z,4.03
2022-10-31T15:08:33.596Z,4.05
2022-10-31T15:13:35.009Z,4.78
2022-10-31T15:18:41.225Z,4.60
2022-10-31T15:23:43.411Z,4.47
2022-10-31T15:28:45.504Z,3.20
2022-10-31T15:33:50.509Z,4.10
2022-10-31T15:38:52.065Z,4.68
2022-10-31T15:43:53.564Z,4.38
2022-10-31T15:48:55.162Z,4.78
2022-10-31T15:53:57.150Z,4.40
2022-10-31T15:59:01.091Z,3.88
2022-10-31T16:04:08.546Z,5.93
2022-10-31T16:09:24.095Z,5.82
2022-10-31T16:14:31.937Z,5.72
2022-10-31T16:19:36.281Z,9.43
2022-10-31T16:24:52.941Z,8.75
2022-10-31T16:29:54.750Z,5.80
2022-10-31T16:35:11.452Z,8.15
2022-10-31T16:40:16.262Z,7.85
2022-10-31T16:45:23.474Z,8.77
2022-10-31T16:50:27.804Z,8.05
2022-10-31T16:55:29.165Z,7.07
2022-10-31T17:00:31.586Z,7.72
2022-10-31T17:05:33.448Z,8.38
2022-10-31T17:10:35.574Z,7.45
2022-10-31T17:15:44.964Z,8.98
2022-10-31T17:20:47.552Z,8.05
2022-10-31T17:25:48.873Z,8.43
2022-10-31T17:30:50.486Z,8.35
2022-10-31T17:35:51.827Z,9.02
2022-10-31T17:40:53.218Z,8.82
2022-10-31T17:45:54.562Z,9.07
2022-10-31T17:51:00.096Z,9.27
2022-10-31T17:56:06.676Z,12.73
2022-10-31T18:01:10.461Z,9.35
2022-10-31T18:06:14.366Z,11.05
2022-10-31T18:11:21.653Z,10.18
2022-10-31T18:16:23.638Z,9.65
2022-10-31T18:21:25.713Z,11.80
2022-10-31T18:26:27.814Z,11.10
2022-10-31T18:31:29.296Z,10.70
2022-10-31T18:36:30.638Z,9.27
2022-10-31T18:41:32.165Z,9.88
2022-10-31T18:46:34.907Z,9.95
2022-10-31T18:51:36.237Z,9.50
2022-10-31T18:56:37.622Z,9.13
2022-10-31T19:01:39.498Z,10.10
2022-10-31T19:06:40.907Z,9.13
2022-10-31T19:11:42.272Z,9.55
2022-10-31T19:16:43.649Z,7.65
2022-10-31T19:21:45.000Z,9.32
2022-10-31T19:26:46.882Z,11.00
2022-10-31T19:31:48.394Z,10.85
2022-10-31T19:36:49.757Z,11.15
2022-10-31T19:41:51.123Z,11.00
2022-10-31T19:46:53.769Z,11.02
2022-10-31T19:51:55.449Z,11.68
2022-10-31T19:56:56.811Z,12.40
2022-10-31T20:01:58.179Z,11.75
2022-10-31T20:06:59.571Z,14.07
2022-10-31T20:12:01.176Z,11.55
2022-10-31T20:17:02.501Z,11.88
2022-10-31T20:22:03.860Z,13.40
2022-10-31T20:27:05.672Z,12.73
2022-10-31T20:32:07.043Z,13.57
2022-10-31T20:37:08.474Z,13.13
2022-10-31T20:42:10.140Z,11.65
2022-10-31T20:47:11.462Z,9.10
2022-10-31T20:52:12.813Z,9.10
2022-10-31T20:57:14.216Z,9.20
2022-10-31T21:02:15.886Z,9.23
2022-10-31T21:07:17.334Z,9.25
2022-10-31T21:12:18.709Z,9.40
2022-10-31T21:17:20.063Z,9.50
2022-10-31T21:22:21.726Z,9.63
2022-10-31T21:27:23.715Z,8.95
2022-10-31T21:32:25.229Z,9.02
2022-10-31T21:37:26.560Z,9.45
2022-10-31T21:42:27.926Z,9.10
2022-10-31T21:47:29.256Z,9.27
2022-10-31T21:52:31.145Z,9.32
2022-10-31T21:57:32.650Z,8.65
2022-10-31T22:02:34.024Z,9.07
2022-10-31T22:07:35.348Z,9.50
2022-10-31T22:12:36.681Z,9.45
2022-10-31T22:17:38.072Z,7.80
2022-10-31T22:22:39.422Z,9.05
2022-10-31T22:27:42.441Z,8.85
2022-10-31T22:32:43.789Z,10.10
2022-10-31T22:37:45.137Z,10.18
2022-10-31T22:42:46.527Z,10.13
2022-10-31T22:47:47.887Z,11.93
2022-10-31T22:52:49.221Z,10.48
2022-10-31T22:57:50.619Z,10.90
2022-10-31T23:02:51.945Z,11.05
2022-10-31T23:07:53.296Z,9.85
2022-10-31T23:13:13.133Z,10.13
2022-10-31T23:18:24.235Z,8.88
2022-10-31T23:23:36.529Z,8.43
2022-10-31T23:28:37.865Z,9.63
2022-10-31T23:33:39.206Z,8.80
2022-10-31T23:38:40.605Z,9.25
2022-10-31T23:43:41.943Z,10.27
2022-10-31T23:48:43.361Z,8.50
2022-10-31T23:53:45.610Z,9.45
2022-10-31T23:58:46.995Z,9.52
